Aeroporto :
LOGIN :

Iscrizione | Disclaimer

   EN    FR    IT 

 










Sommario :    VFR   VFR Marginale   IFR   IFR Intensivo   IFR Molto Intensivo
Visibilità : 
Base nubi : 
>= 8 km
>= 3000ft
5 / 8 km
1000 / 3000 ft
1500m / 5 km
500 / 1000 ft
800 / 1500m
200 / 500 ft
< 800m
< 200 ft
Simboli :   Temporali  Nebbia  Neve Forte  Precipitazioni Forti  Vento > 20 kt
SIGMETs :   Varie  Temporali  Ghiacco  Turbolenza  Onda orograficha  Ceneri Vulcaniche






- Altitudine del aeroporto : 49 ft
- Codice IATA : GLZ


EHGR - Gilze-Rijen Airbase

ULTIMO METAR :
  • 101255Z AUTO 06008KT 330V120 9999 OVC360 19/06 Q1025 BLU 05007KT CAVOK

METARs OBSOLETI :
  • 101225Z AUTO 05007KT 340V120 9999 OVC390 19/07 Q1026 BLU 05007KT CAVOK
  • 101155Z AUTO 05008KT 320V100 9999 OVC390 18/07 Q1026 BLU 05007KT CAVOK
  • 101125Z AUTO 04008KT 350V160 9999 OVC390 18/07 Q1026 BLU 05007KT CAVOK
  • 101055Z AUTO 04008KT 340V090 9999 BKN410 18/06 Q1026 BLU 05007KT CAVOK
  • 101025Z AUTO 04008KT 310V100 9999 NCD 17/07 Q1027 BLU 05007KT CAVOK

TAF TAF EHGR
Valido dal 10 a 09 ore il 10 a 21 ore UTC


100835Z 1009/1021 06008KT CAVOK



MetMap, La meteo Aeronautica in un colpo d'occhio ! - Copyright ORBIFLY Dicembre 2007 - Disclaimer

ORBIFLY MET'MAP TEAM :

Programmazione e sviluppo : Alexandra Zaïnal
Concezione : Baudouin d'Aumeries
Aiuto per la programmazione : Marc-Olivier Méhu
Supporto tecnico e logistico : Manuel Goepfert
Aiuto per la traduzione : Arnaldo La Scala

Contatto : metmap@orbifly.com




FONTI E CREDITI :

   NOAA